createdAt,value
2023-04-22T00:01:17.408Z,12.04
2023-04-22T00:03:46.011Z,12.04
2023-04-22T00:06:14.452Z,12.04
2023-04-22T00:08:45.481Z,12.07
2023-04-22T00:11:14.702Z,12.07
2023-04-22T00:13:42.909Z,12.03
2023-04-22T00:16:13.004Z,12.01
2023-04-22T00:18:41.053Z,11.98
2023-04-22T00:21:09.158Z,11.91
2023-04-22T00:23:37.469Z,11.90
2023-04-22T00:26:06.085Z,11.84
2023-04-22T00:28:34.505Z,11.84
2023-04-22T00:31:03.458Z,11.83
2023-04-22T00:33:33.052Z,11.79
2023-04-22T00:36:01.643Z,11.71
2023-04-22T00:38:33.102Z,11.63
2023-04-22T00:41:02.422Z,11.56
2023-04-22T00:43:31.034Z,11.55
2023-04-22T00:46:00.769Z,11.52
2023-04-22T00:48:31.510Z,11.49
2023-04-22T00:51:01.324Z,11.45
2023-04-22T00:53:30.497Z,11.39
2023-04-22T00:55:58.856Z,11.35
2023-04-22T00:58:29.500Z,11.29
2023-04-22T01:00:57.866Z,11.28
2023-04-22T01:03:28.519Z,11.25
2023-04-22T01:05:58.210Z,11.25
2023-04-22T01:08:31.034Z,11.22
2023-04-22T01:10:59.504Z,11.18
2023-04-22T01:13:27.747Z,11.15
2023-04-22T01:15:56.105Z,11.12
2023-04-22T01:18:24.226Z,11.07
2023-04-22T01:20:52.995Z,11.02
2023-04-22T01:23:25.481Z,10.98
2023-04-22T01:25:53.751Z,10.99
2023-04-22T01:28:22.089Z,10.99
2023-04-22T01:30:50.868Z,10.98
2023-04-22T01:33:19.291Z,10.92
2023-04-22T01:35:47.625Z,10.91
2023-04-22T01:38:15.715Z,10.87
2023-04-22T01:40:45.233Z,10.83
2023-04-22T01:43:13.581Z,10.78
2023-04-22T01:45:42.119Z,10.81
2023-04-22T01:48:11.443Z,10.78
2023-04-22T01:50:39.587Z,10.76
2023-04-22T01:53:09.167Z,10.74
2023-04-22T01:55:37.694Z,10.71
2023-04-22T01:58:07.034Z,10.71
2023-04-22T02:00:35.609Z,10.67
2023-04-22T02:03:03.911Z,10.63
2023-04-22T02:05:32.227Z,10.61
2023-04-22T02:08:02.046Z,10.59
2023-04-22T02:10:30.627Z,10.55
2023-04-22T02:12:59.121Z,10.53
2023-04-22T02:15:29.561Z,10.49
2023-04-22T02:17:57.721Z,10.50
2023-04-22T02:20:25.938Z,10.46
2023-04-22T02:22:54.305Z,10.42
2023-04-22T02:25:22.865Z,10.36
2023-04-22T02:27:51.195Z,10.32
2023-04-22T02:30:19.582Z,10.32
2023-04-22T02:32:49.660Z,10.27
2023-04-22T02:35:17.720Z,10.22
2023-04-22T02:37:45.855Z,10.16
2023-04-22T02:40:14.831Z,10.12
2023-04-22T02:42:43.405Z,10.06
2023-04-22T02:45:16.174Z,10.06
2023-04-22T02:47:44.230Z,10.03
2023-04-22T02:50:13.849Z,10.01
2023-04-22T02:52:42.500Z,9.97
2023-04-22T02:55:14.006Z,9.91
2023-04-22T02:57:43.254Z,9.88
2023-04-22T03:00:12.039Z,9.82
2023-04-22T03:02:40.314Z,9.75
2023-04-22T03:05:10.236Z,9.74
2023-04-22T03:07:39.892Z,9.73
2023-04-22T03:10:10.917Z,9.71
2023-04-22T03:12:39.564Z,9.64
2023-04-22T03:15:08.683Z,9.58
2023-04-22T03:17:37.015Z,9.54
2023-04-22T03:20:06.461Z,9.47
2023-04-22T03:22:34.563Z,9.40
2023-04-22T03:25:04.747Z,9.34
2023-04-22T03:27:33.402Z,9.31
2023-04-22T03:30:01.866Z,9.36
2023-04-22T03:32:30.645Z,9.33
2023-04-22T03:34:58.937Z,9.33
2023-04-22T03:37:27.545Z,9.31
2023-04-22T03:39:56.360Z,9.31
2023-04-22T03:42:25.753Z,9.29
2023-04-22T03:44:54.017Z,9.26
2023-04-22T03:47:24.115Z,9.27
2023-04-22T03:49:53.461Z,9.29
2023-04-22T03:52:21.730Z,9.31
2023-04-22T03:54:50.405Z,9.30
2023-04-22T03:57:29.586Z,9.26
2023-04-22T04:00:01.766Z,9.24
2023-04-22T04:02:30.659Z,9.27
2023-04-22T04:04:59.247Z,9.20
2023-04-22T04:07:27.656Z,9.20
2023-04-22T04:09:56.800Z,9.13
2023-04-22T04:12:30.936Z,9.15
2023-04-22T04:14:59.755Z,9.12
2023-04-22T04:17:28.990Z,9.10
2023-04-22T04:19:57.077Z,9.18
2023-04-22T04:22:25.712Z,9.18
2023-04-22T04:24:56.044Z,9.23
2023-04-22T04:27:28.838Z,9.29
2023-04-22T04:29:58.523Z,9.36
2023-04-22T04:32:27.986Z,9.46
2023-04-22T04:34:58.042Z,9.51
2023-04-22T04:37:26.654Z,9.60
2023-04-22T04:39:54.798Z,9.73
2023-04-22T04:42:25.194Z,9.87
2023-04-22T04:44:54.884Z,10.01
2023-04-22T04:47:24.929Z,10.16
2023-04-22T04:49:55.362Z,10.32
2023-04-22T04:52:23.874Z,10.49
2023-04-22T04:54:53.084Z,10.63
2023-04-22T04:57:22.096Z,10.81
2023-04-22T04:59:50.986Z,11.01
2023-04-22T05:02:19.303Z,11.26
2023-04-22T05:04:49.631Z,11.40
2023-04-22T05:07:18.272Z,11.46
2023-04-22T05:09:47.311Z,11.64
2023-04-22T05:12:15.571Z,11.70
2023-04-22T05:14:44.943Z,11.67
2023-04-22T05:17:15.150Z,11.94
2023-04-22T05:19:43.704Z,12.15
2023-04-22T05:22:13.552Z,12.31
2023-04-22T05:24:41.556Z,12.65
2023-04-22T05:27:09.914Z,12.83
2023-04-22T05:29:38.623Z,13.19
2023-04-22T05:32:08.539Z,13.35
2023-04-22T05:34:37.682Z,13.31
2023-04-22T05:37:08.536Z,13.45
2023-04-22T05:39:38.049Z,13.65
2023-04-22T05:42:09.004Z,13.99
2023-04-22T05:44:38.970Z,14.24
2023-04-22T05:47:08.178Z,14.28
2023-04-22T05:49:36.525Z,14.54
2023-04-22T05:52:04.709Z,14.72
2023-04-22T05:54:33.710Z,14.98
2023-04-22T05:57:04.464Z,15.15
2023-04-22T05:59:32.522Z,15.35
2023-04-22T06:02:01.123Z,15.57
2023-04-22T06:04:29.589Z,15.56
2023-04-22T06:06:58.650Z,15.84
2023-04-22T06:09:26.941Z,16.05
2023-04-22T06:11:55.434Z,15.85
2023-04-22T06:14:25.548Z,15.98
2023-04-22T06:16:54.006Z,16.01
2023-04-22T06:19:22.251Z,16.05
2023-04-22T06:21:50.284Z,16.40
2023-04-22T06:24:18.770Z,16.79
2023-04-22T06:26:46.932Z,16.94
2023-04-22T06:29:15.594Z,16.97
2023-04-22T06:31:45.693Z,17.01
2023-04-22T06:34:13.746Z,16.94
2023-04-22T06:36:42.953Z,17.00
2023-04-22T06:39:11.233Z,16.97
2023-04-22T06:41:41.909Z,17.04
2023-04-22T06:44:11.659Z,17.27
2023-04-22T06:46:40.036Z,17.21
2023-04-22T06:49:09.837Z,17.14
2023-04-22T06:51:38.590Z,16.91
2023-04-22T06:54:06.872Z,16.87
2023-04-22T06:56:34.916Z,17.18
2023-04-22T06:59:03.355Z,17.65
2023-04-22T07:01:32.133Z,17.73
2023-04-22T07:04:02.000Z,17.89
2023-04-22T07:06:33.933Z,17.89
2023-04-22T07:09:03.912Z,18.07
2023-04-22T07:11:33.138Z,18.22
2023-04-22T07:14:02.405Z,18.28
2023-04-22T07:16:33.173Z,18.20
2023-04-22T07:19:02.345Z,18.38
2023-04-22T07:21:32.780Z,18.64
2023-04-22T07:24:02.084Z,18.87
2023-04-22T07:26:43.465Z,19.26
2023-04-22T07:29:18.889Z,19.62
2023-04-22T07:31:51.769Z,19.74
2023-04-22T07:34:23.429Z,19.54
2023-04-22T07:36:55.099Z,19.51
2023-04-22T07:39:24.081Z,19.34
2023-04-22T07:41:53.493Z,19.57
2023-04-22T07:44:23.587Z,19.75
2023-04-22T07:46:52.419Z,19.74
2023-04-22T07:49:23.879Z,19.83
2023-04-22T07:51:54.184Z,20.17
2023-04-22T07:54:25.665Z,20.36
2023-04-22T07:56:59.113Z,20.48
2023-04-22T07:59:30.083Z,20.75
2023-04-22T08:01:58.474Z,20.77
2023-04-22T08:04:27.179Z,20.77
2023-04-22T08:06:57.459Z,20.74
2023-04-22T08:09:25.660Z,20.88
2023-04-22T08:11:55.262Z,20.80
2023-04-22T08:14:31.627Z,20.75
2023-04-22T08:17:01.910Z,20.61
2023-04-22T08:19:32.961Z,20.74
2023-04-22T08:22:03.296Z,21.11
2023-04-22T08:24:32.099Z,21.19
2023-04-22T08:27:00.944Z,20.94
2023-04-22T08:29:34.181Z,20.84
2023-04-22T08:32:08.881Z,20.90
2023-04-22T08:34:38.980Z,21.06
2023-04-22T08:37:09.431Z,21.33
2023-04-22T08:39:37.782Z,21.46
2023-04-22T08:42:09.646Z,21.62
2023-04-22T08:44:40.183Z,21.52
2023-04-22T08:47:14.615Z,22.02
2023-04-22T08:49:46.124Z,22.44
2023-04-22T08:52:16.358Z,22.72
2023-04-22T08:54:44.582Z,22.75
2023-04-22T08:57:13.539Z,22.71
2023-04-22T08:59:42.871Z,22.92
2023-04-22T09:02:15.506Z,22.99
2023-04-22T09:04:44.539Z,23.19
2023-04-22T09:07:19.195Z,23.28
2023-04-22T09:09:48.434Z,23.28
2023-04-22T09:12:18.114Z,23.07
2023-04-22T09:14:47.473Z,23.16
2023-04-22T09:17:18.728Z,23.03
2023-04-22T09:19:47.496Z,23.23
2023-04-22T09:22:18.337Z,23.28
2023-04-22T09:24:51.211Z,23.38
2023-04-22T09:27:21.421Z,23.68
2023-04-22T09:29:50.442Z,23.99
2023-04-22T09:32:19.276Z,24.05
2023-04-22T09:34:54.714Z,24.13
2023-04-22T09:37:33.286Z,23.91
2023-04-22T09:40:11.418Z,23.68
2023-04-22T09:42:55.042Z,23.81
2023-04-22T09:45:28.253Z,24.03
2023-04-22T09:48:00.489Z,23.54
2023-04-22T09:50:32.159Z,23.35
2023-04-22T09:53:04.267Z,23.19
2023-04-22T09:55:35.285Z,23.60
2023-04-22T09:58:10.020Z,23.84
2023-04-22T10:00:42.429Z,23.74
2023-04-22T10:03:11.583Z,23.75
2023-04-22T10:05:42.355Z,23.85
2023-04-22T10:08:12.894Z,23.78
2023-04-22T10:10:41.846Z,23.75
2023-04-22T10:13:11.197Z,23.86
2023-04-22T10:15:44.166Z,23.82
2023-04-22T10:18:15.357Z,23.61
2023-04-22T10:20:47.034Z,23.64
2023-04-22T10:23:23.633Z,23.47
2023-04-22T10:25:58.816Z,23.57
2023-04-22T10:28:32.559Z,23.30
2023-04-22T10:31:01.328Z,23.34
2023-04-22T10:33:40.173Z,23.45
2023-04-22T10:36:09.961Z,23.44
2023-04-22T10:38:42.142Z,23.43
2023-04-22T10:41:14.755Z,23.55
2023-04-22T10:43:43.883Z,23.77
2023-04-22T10:46:52.341Z,23.86
2023-04-22T10:49:21.995Z,23.68
2023-04-22T10:51:51.545Z,23.40
2023-04-22T10:55:00.003Z,23.24
2023-04-22T10:57:37.514Z,23.31
2023-04-22T11:00:45.837Z,23.16
2023-04-22T11:03:29.227Z,23.24
2023-04-22T11:06:18.249Z,23.41
2023-04-22T11:08:47.886Z,23.33
2023-04-22T11:11:18.601Z,23.33
2023-04-22T11:13:50.605Z,23.27
2023-04-22T11:16:22.997Z,23.34
2023-04-22T11:18:51.119Z,23.31
2023-04-22T11:21:19.918Z,23.30
2023-04-22T11:23:52.047Z,23.27
2023-04-22T11:26:34.242Z,23.41
2023-04-22T11:29:02.712Z,23.44
2023-04-22T11:31:32.056Z,23.45
2023-04-22T11:34:01.758Z,23.14
2023-04-22T11:36:31.805Z,22.90
2023-04-22T11:39:00.328Z,22.86
2023-04-22T11:41:31.460Z,23.04
2023-04-22T11:44:03.640Z,23.09
2023-04-22T11:46:38.672Z,23.24
2023-04-22T11:49:16.777Z,23.16
2023-04-22T11:51:56.305Z,23.13
2023-04-22T11:54:33.233Z,23.00
2023-04-22T11:57:05.988Z,22.97
2023-04-22T11:59:34.474Z,22.82
2023-04-22T12:02:08.350Z,22.68
2023-04-22T12:04:41.066Z,22.66
2023-04-22T12:07:09.786Z,22.65
2023-04-22T12:09:39.546Z,22.77
2023-04-22T12:12:09.975Z,22.86
2023-04-22T12:14:40.520Z,22.93
2023-04-22T12:17:12.136Z,22.95
2023-04-22T12:19:41.398Z,22.87
2023-04-22T12:22:09.815Z,22.72
2023-04-22T12:24:38.266Z,22.42
2023-04-22T12:27:08.969Z,22.34
2023-04-22T12:29:37.846Z,22.25
2023-04-22T12:32:06.610Z,22.25
2023-04-22T12:34:35.105Z,22.24
2023-04-22T12:37:03.554Z,22.11
2023-04-22T12:39:32.439Z,21.98
2023-04-22T12:42:00.854Z,22.01
2023-04-22T12:44:32.984Z,22.05
2023-04-22T12:47:01.612Z,22.05
2023-04-22T12:49:29.773Z,22.08
2023-04-22T12:51:57.816Z,22.02
2023-04-22T12:54:25.935Z,22.02
2023-04-22T12:57:00.895Z,21.97
2023-04-22T12:59:31.064Z,21.93
2023-04-22T13:01:59.843Z,21.83
2023-04-22T13:04:28.249Z,21.83
2023-04-22T13:06:57.586Z,21.80
2023-04-22T13:09:30.411Z,21.67
2023-04-22T13:11:59.727Z,21.69
2023-04-22T13:14:28.932Z,21.66
2023-04-22T13:17:04.170Z,21.59
2023-04-22T13:19:35.386Z,21.52
2023-04-22T13:24:37.247Z,21.45
2023-04-22T13:27:08.002Z,21.54
2023-04-22T13:29:39.402Z,21.66
2023-04-22T13:32:09.688Z,21.73
2023-04-22T13:34:39.817Z,21.73
2023-04-22T13:37:08.931Z,21.76
2023-04-22T13:39:36.925Z,21.83
2023-04-22T13:42:05.565Z,21.86
2023-04-22T13:44:34.810Z,21.96
2023-04-22T13:47:04.691Z,21.91
2023-04-22T13:49:34.873Z,21.93
2023-04-22T13:52:04.258Z,21.91
2023-04-22T13:54:34.997Z,21.93
2023-04-22T13:57:06.946Z,21.87
2023-04-22T13:59:36.695Z,21.83
2023-04-22T14:02:05.057Z,21.83
2023-04-22T14:04:34.942Z,21.83
2023-04-22T14:07:04.118Z,21.84
2023-04-22T14:09:32.323Z,21.84
2023-04-22T14:12:00.445Z,21.87
2023-04-22T14:14:28.633Z,21.84
2023-04-22T14:16:56.759Z,21.81
2023-04-22T14:19:26.459Z,21.80
2023-04-22T14:21:55.979Z,21.80
2023-04-22T14:24:27.166Z,21.73
2023-04-22T14:26:55.393Z,21.74
2023-04-22T14:29:23.804Z,21.76
2023-04-22T14:31:52.535Z,21.79
2023-04-22T14:34:20.765Z,21.79
2023-04-22T14:36:49.360Z,21.74
2023-04-22T14:39:19.194Z,21.70
2023-04-22T14:41:47.495Z,21.65
2023-04-22T14:44:15.736Z,21.65
2023-04-22T14:46:48.309Z,21.62
2023-04-22T14:49:16.808Z,21.62
2023-04-22T14:51:45.295Z,21.53
2023-04-22T14:54:13.849Z,21.45
2023-04-22T14:56:43.502Z,21.42
2023-04-22T14:59:12.968Z,21.45
2023-04-22T15:01:43.251Z,21.52
2023-04-22T15:04:13.875Z,21.46
2023-04-22T15:06:42.365Z,21.39
2023-04-22T15:09:11.379Z,21.40
2023-04-22T15:11:39.686Z,21.42
2023-04-22T15:14:10.098Z,21.38
2023-04-22T15:16:38.936Z,21.42
2023-04-22T15:19:08.605Z,21.43
2023-04-22T15:21:38.234Z,21.39
2023-04-22T15:24:07.630Z,21.47
2023-04-22T15:26:36.513Z,21.46
2023-04-22T15:29:04.878Z,21.45
2023-04-22T15:31:37.082Z,21.40
2023-04-22T15:34:05.638Z,21.40
2023-04-22T15:36:34.550Z,21.45
2023-04-22T15:39:04.520Z,21.47
2023-04-22T15:41:34.132Z,21.47
2023-04-22T15:44:11.098Z,21.47
2023-04-22T15:46:43.081Z,21.43
2023-04-22T15:49:11.802Z,21.47
2023-04-22T15:51:41.167Z,21.46
2023-04-22T15:54:13.469Z,21.43
2023-04-22T15:56:41.924Z,21.43
2023-04-22T15:59:11.860Z,21.40
2023-04-22T16:01:40.957Z,21.39
2023-04-22T16:04:17.446Z,21.39
2023-04-22T16:06:46.590Z,21.40
2023-04-22T16:09:16.514Z,21.39
2023-04-22T16:11:51.078Z,21.36
2023-04-22T16:14:19.941Z,21.35
2023-04-22T16:16:48.813Z,21.29
2023-04-22T16:19:23.407Z,21.26
2023-04-22T16:21:52.236Z,21.23
2023-04-22T16:24:20.310Z,21.18
2023-04-22T16:26:50.906Z,21.15
2023-04-22T16:29:20.665Z,21.12
2023-04-22T16:31:49.207Z,21.12
2023-04-22T16:34:19.611Z,21.08
2023-04-22T16:36:48.325Z,21.08
2023-04-22T16:39:19.440Z,21.08
2023-04-22T16:41:47.768Z,21.05
2023-04-22T16:44:17.298Z,21.02
2023-04-22T16:46:46.326Z,21.01
2023-04-22T16:49:22.775Z,20.98
2023-04-22T16:51:59.371Z,20.92
2023-04-22T16:54:30.131Z,20.88
2023-04-22T16:56:59.069Z,20.85
2023-04-22T16:59:27.905Z,20.80
2023-04-22T17:01:58.111Z,20.75
2023-04-22T17:04:27.900Z,20.73
2023-04-22T17:07:03.804Z,20.70
2023-04-22T17:09:33.300Z,20.68
2023-04-22T17:12:03.086Z,20.64
2023-04-22T17:14:32.922Z,20.61
2023-04-22T17:17:01.650Z,20.54
2023-04-22T17:19:30.114Z,20.50
2023-04-22T17:22:02.914Z,20.44
2023-04-22T17:24:33.668Z,20.39
2023-04-22T17:27:03.010Z,20.34
2023-04-22T17:29:31.432Z,20.29
2023-04-22T17:32:02.993Z,20.24
2023-04-22T17:34:31.422Z,20.20
2023-04-22T17:37:01.269Z,20.13
2023-04-22T17:39:33.692Z,20.06
2023-04-22T17:42:02.552Z,20.02
2023-04-22T17:44:31.773Z,19.95
2023-04-22T17:47:00.369Z,19.90
2023-04-22T17:49:28.830Z,19.81
2023-04-22T17:51:58.432Z,19.74
2023-04-22T17:54:28.106Z,19.65
2023-04-22T17:56:56.198Z,19.58
2023-04-22T17:59:24.287Z,19.51
2023-04-22T18:01:52.526Z,19.41
2023-04-22T18:04:21.804Z,19.34
2023-04-22T18:06:50.396Z,19.26
2023-04-22T18:09:18.388Z,19.16
2023-04-22T18:11:47.937Z,19.08
2023-04-22T18:14:16.332Z,19.02
2023-04-22T18:16:44.461Z,18.89
2023-04-22T18:19:18.028Z,18.76
2023-04-22T18:21:56.719Z,18.66
2023-04-22T18:24:29.571Z,18.59
2023-04-22T18:27:01.640Z,18.49
2023-04-22T18:29:30.273Z,18.38
2023-04-22T18:31:58.399Z,18.25
2023-04-22T18:34:26.495Z,18.13
2023-04-22T18:36:56.104Z,18.07
2023-04-22T18:39:24.382Z,18.00
2023-04-22T18:41:52.747Z,17.94
2023-04-22T18:44:22.592Z,17.87
2023-04-22T18:46:53.012Z,17.87
2023-04-22T18:49:21.182Z,17.81
2023-04-22T18:51:49.634Z,17.74
2023-04-22T18:54:17.732Z,17.69
2023-04-22T18:56:46.210Z,17.62
2023-04-22T18:59:14.640Z,17.52
2023-04-22T19:01:44.456Z,17.42
2023-04-22T19:04:13.014Z,17.35
2023-04-22T19:06:41.457Z,17.32
2023-04-22T19:09:10.326Z,17.32
2023-04-22T19:11:39.123Z,17.29
2023-04-22T19:14:07.265Z,17.25
2023-04-22T19:16:35.648Z,17.21
2023-04-22T19:19:05.014Z,17.21
2023-04-22T19:21:33.351Z,17.14
2023-04-22T19:24:01.582Z,17.07
2023-04-22T19:26:29.971Z,16.98
2023-04-22T19:28:58.388Z,16.90
2023-04-22T19:31:29.064Z,16.81
2023-04-22T19:33:57.656Z,16.79
2023-04-22T19:36:28.426Z,16.71
2023-04-22T19:38:57.085Z,16.69
2023-04-22T19:41:25.172Z,16.71
2023-04-22T19:43:55.719Z,16.67
2023-04-22T19:46:26.571Z,16.69
2023-04-22T19:48:59.508Z,16.73
2023-04-22T19:51:32.641Z,16.69
2023-04-22T19:54:02.665Z,16.60
2023-04-22T19:56:31.606Z,16.49
2023-04-22T19:59:00.650Z,16.44
2023-04-22T20:01:29.275Z,16.37
2023-04-22T20:04:00.636Z,16.30
2023-04-22T20:06:30.483Z,16.22
2023-04-22T20:08:58.995Z,16.16
2023-04-22T20:11:29.524Z,16.14
2023-04-22T20:13:57.905Z,16.09
2023-04-22T20:16:27.033Z,16.05
2023-04-22T20:18:55.556Z,15.98
2023-04-22T20:21:24.361Z,15.95
2023-04-22T20:23:57.211Z,15.91
2023-04-22T20:26:26.356Z,15.90
2023-04-22T20:28:55.826Z,15.85
2023-04-22T20:31:24.928Z,15.78
2023-04-22T20:33:54.097Z,15.73
2023-04-22T20:36:22.685Z,15.65
2023-04-22T20:38:52.191Z,15.63
2023-04-22T20:41:22.068Z,15.61
2023-04-22T20:43:50.808Z,15.56
2023-04-22T20:46:20.717Z,15.53
2023-04-22T20:48:50.293Z,15.47
2023-04-22T20:51:18.830Z,15.43
2023-04-22T20:53:46.960Z,15.37
2023-04-22T20:56:15.616Z,15.32
2023-04-22T20:58:46.367Z,15.26
2023-04-22T21:01:16.485Z,15.20
2023-04-22T21:03:51.439Z,15.13
2023-04-22T21:06:22.071Z,15.07
2023-04-22T21:08:51.247Z,15.03
2023-04-22T21:11:23.424Z,14.98
2023-04-22T21:13:54.389Z,14.95
2023-04-22T21:16:34.386Z,14.91
2023-04-22T21:19:06.614Z,14.93
2023-04-22T21:21:36.531Z,14.91
2023-04-22T21:24:05.902Z,14.91
2023-04-22T21:26:35.664Z,14.91
2023-04-22T21:29:05.988Z,14.95
2023-04-22T21:31:35.105Z,14.96
2023-04-22T21:34:05.828Z,14.92
2023-04-22T21:36:34.297Z,14.93
2023-04-22T21:39:04.527Z,14.93
2023-04-22T21:41:33.241Z,14.88
2023-04-22T21:44:01.726Z,14.91
2023-04-22T21:46:32.074Z,14.88
2023-04-22T21:49:01.004Z,14.89
2023-04-22T21:51:29.247Z,14.85
2023-04-22T21:53:57.425Z,14.86
2023-04-22T21:56:27.111Z,14.86
2023-04-22T21:58:56.107Z,14.88
2023-04-22T22:01:25.661Z,14.88
2023-04-22T22:03:55.479Z,14.92
2023-04-22T22:06:23.868Z,14.92
2023-04-22T22:08:53.366Z,14.93
2023-04-22T22:13:53.656Z,14.93
2023-04-22T22:16:23.321Z,14.96
2023-04-22T22:18:53.187Z,14.96
2023-04-22T22:21:23.051Z,15.00
2023-04-22T22:23:51.440Z,15.00
2023-04-22T22:26:19.722Z,15.02
2023-04-22T22:28:48.516Z,15.03
2023-04-22T22:31:16.687Z,15.02
2023-04-22T22:33:45.882Z,14.99
2023-04-22T22:36:14.102Z,14.99
2023-04-22T22:38:44.124Z,14.98
2023-04-22T22:52:02.598Z,14.95
2023-04-22T22:54:31.226Z,14.92
2023-04-22T22:57:00.272Z,14.91
2023-04-22T22:59:28.705Z,14.91
2023-04-22T23:01:58.204Z,14.91
2023-04-22T23:04:27.837Z,14.91
2023-04-22T23:06:57.658Z,14.88
2023-04-22T23:09:25.956Z,14.86
2023-04-22T23:11:57.648Z,14.81
2023-04-22T23:14:27.600Z,14.82
2023-04-22T23:16:57.634Z,14.85
2023-04-22T23:19:26.922Z,14.92
2023-04-22T23:21:57.548Z,14.93
2023-04-22T23:24:28.371Z,14.96
2023-04-22T23:26:57.409Z,15.00
2023-04-22T23:29:27.313Z,15.05
2023-04-22T23:31:59.061Z,15.06
2023-04-22T23:34:27.910Z,15.09
2023-04-22T23:36:58.841Z,15.10
2023-04-22T23:39:27.027Z,15.15
2023-04-22T23:41:55.402Z,15.16
2023-04-22T23:44:24.331Z,15.15
2023-04-22T23:47:07.986Z,15.12
2023-04-22T23:49:38.607Z,15.12
2023-04-22T23:52:11.045Z,15.18
2023-04-22T23:54:41.442Z,15.18
2023-04-22T23:57:11.611Z,15.20
2023-04-22T23:59:41.160Z,15.25
